Time;durP1;ratioP1;P1;durP2;ratioP2;P2;SDS_P1;SDS_P2;PMS_P1;PMS_P2;Temp;Humidity;BMP_temperature;BMP_pressure;BME280_temperature;BME280_humidity;BME280_pressure;Samples;Min_cycle;Max_cycle;Signal;HPM_P1;HPM_P2
2022/05/01 00:01:08;;;;;;;0.60;0.60;;;10.30;99.90;;;;;;5014590;28;20458;-71
2022/05/01 00:03:56;;;;;;;0.50;0.50;;;10.30;99.90;;;;;;5014972;28;20420;-72
2022/05/01 00:06:46;;;;;;;0.60;0.60;;;10.30;99.90;;;;;;5014786;28;20426;-73
2022/05/01 00:09:34;;;;;;;2.33;2.23;;;10.20;99.90;;;;;;5015356;28;20426;-72
2022/05/01 00:12:22;;;;;;;0.60;0.60;;;10.10;99.90;;;;;;5014905;28;20528;-72
2022/05/01 00:15:11;;;;;;;1.33;0.83;;;10.10;99.90;;;;;;5016913;28;21004;-72
2022/05/01 00:17:59;;;;;;;0.50;0.50;;;10.00;99.90;;;;;;5014404;28;20492;-72
2022/05/01 00:20:47;;;;;;;0.80;0.80;;;9.90;99.90;;;;;;5015545;28;20856;-71
2022/05/01 00:23:37;;;;;;;0.40;0.40;;;9.90;99.90;;;;;;5014450;28;20422;-72
2022/05/01 00:26:25;;;;;;;0.40;0.40;;;9.80;99.90;;;;;;5014857;28;20931;-72
2022/05/01 00:29:13;;;;;;;0.50;0.50;;;9.80;99.90;;;;;;5015917;28;20461;-72
2022/05/01 00:32:02;;;;;;;0.50;0.50;;;9.70;99.90;;;;;;5015204;28;20430;-73
2022/05/01 00:37:55;;;;;;;0.50;0.50;;;9.70;99.90;;;;;;5012327;28;21040;-72
2022/05/01 00:40:45;;;;;;;0.50;0.50;;;9.60;99.90;;;;;;5012343;28;20437;-72
2022/05/01 00:43:34;;;;;;;0.40;0.40;;;9.60;99.90;;;;;;5029772;28;20453;-72
2022/05/01 00:46:23;;;;;;;0.50;0.50;;;9.70;99.90;;;;;;5033032;28;20457;-72
2022/05/01 00:49:14;;;;;;;0.50;0.50;;;9.50;99.90;;;;;;5032847;28;20429;-71
2022/05/01 00:52:07;;;;;;;0.40;0.40;;;9.70;99.90;;;;;;5033005;28;20425;-73
2022/05/01 00:54:55;;;;;;;0.50;0.50;;;9.70;99.90;;;;;;5033794;28;20429;-72
2022/05/01 00:57:47;;;;;;;0.50;0.50;;;9.60;99.90;;;;;;5020186;28;20481;-73
2022/05/01 01:00:36;;;;;;;0.50;0.50;;;9.50;99.90;;;;;;5015521;28;20430;-72
2022/05/01 01:03:24;;;;;;;0.50;0.50;;;9.50;99.90;;;;;;5017504;28;20508;-72
2022/05/01 01:06:12;;;;;;;0.60;0.60;;;9.50;99.90;;;;;;5017271;28;20422;-71
2022/05/01 01:09:01;;;;;;;0.40;0.40;;;9.50;99.90;;;;;;5017852;28;20448;-73
2022/05/01 01:12:53;;;;;;;0.50;0.50;;;9.50;99.90;;;;;;5016822;28;20484;-72
2022/05/01 01:14:58;;;;;;;0.50;0.50;;;9.50;99.90;;;;;;5017766;28;20853;-72
2022/05/01 01:17:52;;;;;;;0.40;0.40;;;9.60;99.90;;;;;;5016408;28;20488;-71
2022/05/01 01:20:42;;;;;;;0.50;0.50;;;9.60;99.90;;;;;;5025520;28;20432;-71
2022/05/01 01:23:31;;;;;;;0.50;0.50;;;9.60;99.90;;;;;;5037970;28;20474;-72
2022/05/01 01:26:19;;;;;;;0.50;0.50;;;9.60;99.90;;;;;;5036356;28;20633;-72
2022/05/01 01:32:13;;;;;;;0.50;0.50;;;9.70;99.90;;;;;;5036313;28;21022;-72
2022/05/01 01:35:02;;;;;;;0.40;0.40;;;9.70;99.90;;;;;;5035530;28;20428;-72
2022/05/01 01:37:54;;;;;;;0.50;0.50;;;9.80;99.90;;;;;;5036217;28;20951;-72
2022/05/01 01:40:46;;;;;;;0.50;0.50;;;9.80;99.90;;;;;;5035897;28;20418;-72
2022/05/01 01:43:37;;;;;;;0.40;0.40;;;9.80;99.90;;;;;;5036511;28;20429;-72
2022/05/01 01:46:26;;;;;;;0.40;0.40;;;9.90;99.90;;;;;;5036338;28;20973;-72
2022/05/01 01:49:14;;;;;;;0.40;0.40;;;9.80;99.90;;;;;;5036836;28;20450;-72
2022/05/01 01:52:03;;;;;;;0.60;0.60;;;9.70;99.90;;;;;;5036067;28;20421;-72
2022/05/01 01:54:52;;;;;;;0.50;0.50;;;9.70;99.90;;;;;;5036219;28;20514;-72
2022/05/01 01:57:40;;;;;;;0.50;0.50;;;9.60;99.90;;;;;;5022606;28;21013;-71
2022/05/01 02:00:28;;;;;;;0.40;0.40;;;9.50;99.90;;;;;;5016237;28;20453;-72
2022/05/01 02:03:16;;;;;;;0.50;0.50;;;9.30;99.90;;;;;;5016205;28;20445;-75
2022/05/01 02:06:05;;;;;;;0.50;0.50;;;9.20;99.90;;;;;;5018183;28;20422;-71
2022/05/01 02:08:54;;;;;;;0.50;0.50;;;9.10;99.90;;;;;;5019148;28;20445;-70
2022/05/01 02:11:44;;;;;;;0.50;0.50;;;9.10;99.90;;;;;;5016045;28;20481;-71
2022/05/01 02:14:32;;;;;;;0.50;0.50;;;9.00;99.90;;;;;;5017471;28;20559;-71
2022/05/01 02:17:20;;;;;;;0.50;0.50;;;8.90;99.90;;;;;;5017790;28;20539;-72
2022/05/01 02:20:10;;;;;;;0.50;0.50;;;8.80;99.90;;;;;;5016445;28;20426;-72
2022/05/01 02:22:58;;;;;;;0.50;0.50;;;8.80;99.90;;;;;;5017685;28;20461;-72
2022/05/01 02:25:46;;;;;;;0.60;0.60;;;8.80;99.90;;;;;;5018024;28;20445;-73
2022/05/01 02:28:36;;;;;;;0.93;0.93;;;8.70;99.90;;;;;;5015938;28;20942;-72
2022/05/01 02:31:24;;;;;;;0.50;0.50;;;8.70;99.90;;;;;;5017574;28;20429;-72
2022/05/01 02:34:13;;;;;;;0.50;0.50;;;8.70;99.90;;;;;;5016467;28;20469;-71
2022/05/01 02:37:01;;;;;;;0.50;0.50;;;8.80;99.90;;;;;;5015811;28;20489;-72
2022/05/01 02:39:49;;;;;;;0.40;0.40;;;8.70;99.90;;;;;;5017231;28;20430;-72
2022/05/01 02:42:37;;;;;;;0.50;0.50;;;8.70;99.90;;;;;;5015912;28;20480;-71
2022/05/01 02:45:26;;;;;;;0.40;0.40;;;8.80;99.90;;;;;;5016516;28;20504;-72
2022/05/01 02:48:14;;;;;;;0.50;0.50;;;8.60;99.90;;;;;;5017517;28;20480;-73
2022/05/01 02:51:04;;;;;;;0.50;0.50;;;8.60;99.90;;;;;;5016114;28;20448;-72
2022/05/01 02:53:52;;;;;;;0.50;0.50;;;8.60;99.90;;;;;;5015660;28;20458;-71
2022/05/01 02:56:40;;;;;;;0.50;0.50;;;8.50;99.90;;;;;;5015645;28;20430;-72
2022/05/01 02:59:29;;;;;;;0.50;0.50;;;8.50;99.90;;;;;;5015274;28;20430;-71
2022/05/01 03:02:18;;;;;;;0.40;0.40;;;8.40;99.90;;;;;;5016572;28;20485;-72
2022/05/01 03:05:07;;;;;;;0.50;0.50;;;8.50;99.90;;;;;;5016515;28;20450;-72
2022/05/01 03:07:55;;;;;;;0.50;0.50;;;8.30;99.90;;;;;;5015380;28;20884;-72
2022/05/01 03:10:44;;;;;;;0.43;0.43;;;8.30;99.90;;;;;;5017150;28;20426;-71
2022/05/01 03:13:32;;;;;;;0.50;0.50;;;8.40;99.90;;;;;;5017217;28;20547;-71
2022/05/01 03:16:20;;;;;;;0.50;0.50;;;8.30;99.90;;;;;;5014917;28;20476;-71
2022/05/01 03:22:15;;;;;;;0.40;0.40;;;8.40;99.90;;;;;;5015464;28;20437;-70
2022/05/01 03:25:04;;;;;;;0.40;0.40;;;8.30;99.90;;;;;;5013920;28;20450;-71
2022/05/01 03:27:53;;;;;;;0.43;0.43;;;8.40;99.90;;;;;;5015219;28;20436;-70
2022/05/01 03:30:41;;;;;;;0.50;0.50;;;8.40;99.90;;;;;;5014559;28;21032;-72
2022/05/01 03:33:31;;;;;;;0.50;0.50;;;8.40;99.90;;;;;;5015299;28;20476;-72
2022/05/01 03:36:20;;;;;;;0.40;0.40;;;8.30;99.90;;;;;;5014740;28;20434;-71
2022/05/01 03:39:08;;;;;;;0.47;0.47;;;8.30;99.90;;;;;;5015584;28;20422;-71
2022/05/01 03:41:56;;;;;;;0.50;0.50;;;8.20;99.90;;;;;;5013962;28;20466;-70
2022/05/01 03:44:45;;;;;;;0.50;0.50;;;8.30;99.90;;;;;;5015802;28;20437;-69
2022/05/01 03:47:33;;;;;;;2.90;2.63;;;8.20;99.90;;;;;;5014593;28;20489;-71
2022/05/01 03:50:21;;;;;;;0.50;0.50;;;8.10;99.90;;;;;;5015795;28;20430;-71
2022/05/01 03:53:11;;;;;;;0.50;0.50;;;8.10;99.90;;;;;;5014527;28;20418;-71
2022/05/01 03:55:59;;;;;;;1.17;1.17;;;8.10;99.90;;;;;;5015308;28;20894;-69
2022/05/01 03:58:47;;;;;;;0.50;0.50;;;8.00;99.90;;;;;;5014829;28;20544;-70
2022/05/01 04:01:35;;;;;;;0.80;0.80;;;8.00;99.90;;;;;;5014331;28;20430;-71
2022/05/01 04:04:23;;;;;;;0.50;0.50;;;8.00;99.90;;;;;;5014731;28;20444;-70
2022/05/01 04:07:11;;;;;;;0.50;0.50;;;8.00;99.90;;;;;;5017038;28;20453;-71
2022/05/01 04:10:01;;;;;;;0.50;0.50;;;7.80;99.90;;;;;;5015781;28;20422;-71
2022/05/01 04:12:49;;;;;;;0.50;0.50;;;7.90;99.90;;;;;;5014625;28;20497;-70
2022/05/01 04:15:37;;;;;;;0.87;0.87;;;7.80;99.90;;;;;;5015102;28;20465;-72
2022/05/01 04:18:25;;;;;;;0.50;0.50;;;7.80;99.90;;;;;;5014710;28;20939;-70
2022/05/01 04:21:14;;;;;;;0.50;0.50;;;7.90;99.90;;;;;;5013488;28;20422;-70
2022/05/01 04:24:02;;;;;;;0.50;0.50;;;8.00;99.90;;;;;;5014105;28;20457;-70
2022/05/01 04:26:51;;;;;;;0.50;0.50;;;8.10;99.90;;;;;;5013893;28;21009;-70
2022/05/01 04:29:41;;;;;;;0.50;0.50;;;8.00;99.90;;;;;;5014030;28;20527;-70
2022/05/01 04:32:30;;;;;;;0.40;0.40;;;8.10;99.90;;;;;;5014735;28;20430;-70
2022/05/01 04:35:23;;;;;;;0.50;0.50;;;8.10;99.90;;;;;;5013869;28;20500;-71
2022/05/01 04:38:13;;;;;;;0.50;0.50;;;8.30;99.90;;;;;;5014446;28;20530;-72
2022/05/01 04:41:03;;;;;;;0.50;0.50;;;8.10;99.90;;;;;;5014036;28;20430;-71
2022/05/01 04:43:53;;;;;;;0.40;0.40;;;8.20;99.90;;;;;;5015063;28;20430;-71
2022/05/01 04:46:41;;;;;;;0.50;0.50;;;8.20;99.90;;;;;;5014560;28;20440;-70
2022/05/01 04:49:29;;;;;;;0.50;0.50;;;8.30;99.90;;;;;;5014923;28;20426;-70
2022/05/01 04:52:17;;;;;;;0.50;0.50;;;8.40;99.90;;;;;;5013751;28;20514;-72
2022/05/01 04:55:07;;;;;;;0.40;0.40;;;8.70;99.90;;;;;;5014499;28;20457;-71
2022/05/01 04:57:55;;;;;;;0.40;0.40;;;8.60;99.90;;;;;;5014243;28;20450;-71
2022/05/01 05:00:46;;;;;;;0.40;0.40;;;8.80;99.90;;;;;;5012258;28;20513;-71
2022/05/01 05:03:34;;;;;;;0.50;0.50;;;8.80;99.90;;;;;;5013308;28;20430;-71
2022/05/01 05:06:23;;;;;;;0.40;0.40;;;9.00;99.90;;;;;;5012971;28;20418;-71
2022/05/01 05:12:17;;;;;;;0.47;0.47;;;9.20;99.90;;;;;;5013485;28;20422;-71
2022/05/01 05:15:09;;;;;;;0.50;0.50;;;9.30;99.90;;;;;;5012758;28;21401;-71
2022/05/01 05:17:58;;;;;;;0.47;0.47;;;9.50;99.90;;;;;;5013250;28;20446;-71
2022/05/01 05:20:46;;;;;;;0.40;0.40;;;9.80;99.90;;;;;;5011766;28;20437;-70
2022/05/01 05:23:35;;;;;;;0.40;0.40;;;9.80;99.90;;;;;;5011380;28;20425;-70
2022/05/01 05:26:23;;;;;;;0.50;0.50;;;10.00;99.90;;;;;;5011977;28;20951;-71
2022/05/01 05:29:11;;;;;;;0.40;0.40;;;10.30;99.90;;;;;;5012509;28;20966;-70
2022/05/01 05:31:59;;;;;;;0.50;0.50;;;10.40;99.90;;;;;;5011983;28;20999;-72
2022/05/01 05:34:49;;;;;;;1.00;1.00;;;10.60;99.90;;;;;;5012118;28;20462;-71
2022/05/01 05:37:37;;;;;;;0.40;0.40;;;10.50;99.90;;;;;;5012514;28;20466;-71
2022/05/01 05:40:25;;;;;;;0.40;0.40;;;10.70;99.90;;;;;;5013006;28;20426;-71
2022/05/01 05:43:13;;;;;;;0.40;0.40;;;10.80;99.90;;;;;;5012729;28;20517;-71
2022/05/01 05:46:01;;;;;;;0.40;0.40;;;10.90;99.90;;;;;;5013413;28;20871;-71
2022/05/01 05:48:49;;;;;;;0.40;0.40;;;11.00;99.90;;;;;;5016355;28;20512;-70
2022/05/01 05:51:39;;;;;;;0.50;0.50;;;11.10;99.90;;;;;;5016363;28;20915;-71
2022/05/01 05:54:27;;;;;;;0.50;0.50;;;11.20;99.90;;;;;;5016272;28;20425;-71
2022/05/01 05:57:15;;;;;;;0.50;0.50;;;11.40;99.90;;;;;;5016611;28;20442;-71
2022/05/01 06:00:04;;;;;;;0.50;0.50;;;11.40;99.90;;;;;;5017803;28;20898;-72
2022/05/01 06:02:56;;;;;;;0.50;0.50;;;11.30;99.90;;;;;;5016095;28;20437;-72
2022/05/01 06:05:44;;;;;;;0.50;0.50;;;11.30;99.90;;;;;;5015939;28;20951;-72
2022/05/01 06:08:35;;;;;;;0.50;0.50;;;11.30;99.90;;;;;;5016776;28;20443;-71
2022/05/01 06:11:23;;;;;;;0.50;0.50;;;11.30;99.90;;;;;;5017619;28;20815;-70
2022/05/01 06:14:11;;;;;;;0.50;0.50;;;11.50;99.90;;;;;;5017015;28;20440;-71
2022/05/01 06:16:59;;;;;;;0.50;0.50;;;11.60;99.90;;;;;;5017069;28;20469;-72
2022/05/01 06:19:47;;;;;;;0.40;0.40;;;11.70;99.90;;;;;;5017557;28;20551;-71
2022/05/01 06:22:36;;;;;;;0.40;0.40;;;11.90;99.90;;;;;;5016546;28;20458;-71
2022/05/01 06:25:26;;;;;;;0.40;0.40;;;11.70;99.90;;;;;;5016459;28;20511;-71
2022/05/01 06:28:15;;;;;;;0.50;0.50;;;11.80;99.90;;;;;;5016504;28;21045;-71
2022/05/01 06:31:04;;;;;;;0.40;0.40;;;11.80;99.90;;;;;;5016309;28;20553;-70
2022/05/01 06:33:52;;;;;;;0.40;0.40;;;11.90;99.90;;;;;;5016369;28;20947;-71
2022/05/01 06:36:40;;;;;;;0.50;0.50;;;12.00;99.90;;;;;;5017180;28;20563;-71
2022/05/01 06:39:29;;;;;;;0.50;0.50;;;12.00;99.90;;;;;;5016335;28;20418;-71
2022/05/01 06:42:19;;;;;;;3.70;2.60;;;12.30;99.90;;;;;;5015907;28;20927;-71
2022/05/01 06:45:07;;;;;;;0.80;0.80;;;12.40;99.90;;;;;;5015996;28;20426;-71
2022/05/01 06:47:55;;;;;;;0.40;0.40;;;12.50;99.90;;;;;;5016233;28;20465;-71
2022/05/01 06:50:43;;;;;;;0.40;0.40;;;12.70;99.90;;;;;;5016568;28;20531;-71
2022/05/01 06:53:32;;;;;;;0.50;0.50;;;12.90;99.90;;;;;;5015490;28;20440;-71
2022/05/01 06:56:20;;;;;;;0.50;0.50;;;13.10;99.90;;;;;;5015590;28;20477;-71
2022/05/01 06:59:09;;;;;;;0.50;0.50;;;13.30;99.90;;;;;;5014170;28;20430;-71
2022/05/01 07:01:57;;;;;;;0.50;0.50;;;13.60;99.90;;;;;;5015574;28;20472;-70
2022/05/01 07:04:47;;;;;;;1.17;1.17;;;13.50;99.90;;;;;;5015007;28;20454;-71
2022/05/01 07:07:35;;;;;;;0.40;0.40;;;13.60;99.90;;;;;;5015478;28;20551;-71
2022/05/01 07:10:24;;;;;;;1.00;1.00;;;13.60;99.90;;;;;;5014971;28;20957;-71
2022/05/01 07:13:12;;;;;;;0.40;0.40;;;13.90;99.90;;;;;;5015360;28;20905;-71
2022/05/01 07:16:01;;;;;;;0.40;0.40;;;14.30;99.90;;;;;;5015622;28;20726;-71
2022/05/01 07:18:49;;;;;;;0.40;0.40;;;14.50;99.90;;;;;;5015387;28;20223;-70
2022/05/01 07:21:37;;;;;;;1.23;1.23;;;14.80;99.90;;;;;;5014816;28;20997;-71
2022/05/01 07:24:25;;;;;;;0.50;0.50;;;14.90;99.90;;;;;;5015311;28;20206;-71
2022/05/01 07:27:14;;;;;;;0.40;0.40;;;15.00;99.90;;;;;;5014861;28;20222;-71
2022/05/01 07:30:02;;;;;;;0.50;0.50;;;15.20;99.90;;;;;;5015665;28;20466;-71
2022/05/01 07:32:51;;;;;;;0.70;0.70;;;15.20;99.90;;;;;;5014889;28;20237;-71
2022/05/01 07:35:40;;;;;;;0.40;0.40;;;15.40;99.90;;;;;;5015630;28;20223;-70
2022/05/01 07:38:28;;;;;;;0.40;0.40;;;15.50;99.90;;;;;;5016191;28;20218;-70
2022/05/01 07:41:16;;;;;;;0.47;0.47;;;15.70;99.90;;;;;;5015025;28;20199;-71
2022/05/01 07:44:04;;;;;;;0.47;0.47;;;16.10;99.90;;;;;;5016289;28;20243;-73
2022/05/01 07:46:53;;;;;;;0.40;0.40;;;16.00;99.90;;;;;;5014656;28;20207;-72
2022/05/01 07:49:42;;;;;;;0.40;0.40;;;16.10;99.90;;;;;;5015320;28;20265;-71
2022/05/01 07:52:30;;;;;;;0.50;0.50;;;16.20;99.90;;;;;;5014494;28;20246;-72
2022/05/01 07:55:18;;;;;;;0.40;0.40;;;16.10;99.90;;;;;;5014776;28;20206;-71
2022/05/01 07:58:07;;;;;;;0.40;0.40;;;15.90;99.90;;;;;;5014818;28;20736;-72
2022/05/01 08:00:58;;;;;;;0.40;0.40;;;15.70;99.90;;;;;;5016522;28;20719;-71
2022/05/01 08:06:53;;;;;;;0.40;0.40;;;15.00;99.90;;;;;;5015202;28;20329;-71
2022/05/01 08:09:41;;;;;;;0.50;0.50;;;14.60;99.90;;;;;;5014691;28;20199;-71
2022/05/01 08:12:30;;;;;;;0.98;0.98;;;14.40;99.90;;;;;;5015301;28;20199;-71
2022/05/01 08:15:19;;;;;;;0.40;0.40;;;14.40;99.90;;;;;;5016054;28;20199;-70
2022/05/01 08:21:12;;;;;;;0.50;0.50;;;14.10;99.90;;;;;;5014370;28;20221;-70
2022/05/01 08:24:02;;;;;;;0.40;0.40;;;14.00;99.90;;;;;;5015691;28;20738;-71
2022/05/01 08:26:50;;;;;;;0.40;0.40;;;13.80;99.90;;;;;;5015051;28;20206;-71
2022/05/01 08:29:38;;;;;;;0.40;0.40;;;13.80;99.90;;;;;;5014322;28;20203;-71
2022/05/01 08:32:27;;;;;;;0.40;0.40;;;14.00;99.90;;;;;;5014298;28;20249;-71
2022/05/01 08:35:15;;;;;;;0.60;0.60;;;13.70;99.90;;;;;;5014986;28;20217;-70
2022/05/01 08:38:03;;;;;;;0.40;0.40;;;13.70;99.90;;;;;;5014906;28;20237;-70
2022/05/01 08:40:53;;;;;;;0.40;0.40;;;13.70;99.90;;;;;;5014914;28;20290;-70
2022/05/01 08:43:41;;;;;;;0.40;0.40;;;13.70;99.90;;;;;;5014870;28;20245;-69
2022/05/01 08:46:49;;;;;;;0.43;0.43;;;13.70;99.90;;;;;;5015940;28;20623;-71
2022/05/01 08:49:39;;;;;;;0.50;0.50;;;13.70;99.90;;;;;;5013388;28;20333;-72
2022/05/01 08:52:27;;;;;;;0.40;0.40;;;13.70;99.90;;;;;;5014565;28;20861;-73
2022/05/01 08:55:17;;;;;;;0.40;0.40;;;13.70;99.90;;;;;;5014172;28;20210;-71
2022/05/01 08:58:08;;;;;;;0.50;0.50;;;13.60;99.90;;;;;;5013757;28;20489;-70
2022/05/01 09:00:58;;;;;;;0.50;0.50;;;13.50;99.90;;;;;;5013422;28;20245;-69
2022/05/01 09:03:46;;;;;;;0.40;0.40;;;13.30;99.90;;;;;;5013365;28;20199;-70
2022/05/01 09:06:35;;;;;;;0.50;0.50;;;13.30;99.90;;;;;;5013512;28;20206;-71
2022/05/01 09:09:24;;;;;;;0.40;0.40;;;13.20;99.90;;;;;;5013595;28;20199;-71
2022/05/01 09:15:30;;;;;;;0.40;0.40;;;13.00;99.90;;;;;;5015559;28;20233;-71
2022/05/01 09:18:19;;;;;;;0.77;0.77;;;12.90;99.90;;;;;;5014749;28;20908;-72
2022/05/01 09:21:08;;;;;;;0.50;0.50;;;12.80;99.90;;;;;;5014263;28;20959;-72
2022/05/01 09:24:06;;;;;;;0.50;0.50;;;12.80;99.90;;;;;;5018165;28;20519;-72
2022/05/01 09:26:55;;;;;;;1.90;0.83;;;12.70;99.90;;;;;;5019134;28;20839;-73
2022/05/01 09:29:43;;;;;;;0.40;0.40;;;12.70;99.90;;;;;;5017639;28;20504;-71
2022/05/01 09:32:38;;;;;;;0.50;0.50;;;12.70;99.90;;;;;;5018138;28;20440;-72
2022/05/01 09:35:31;;;;;;;0.40;0.40;;;12.70;99.90;;;;;;5017571;28;20480;-72
2022/05/01 09:38:21;;;;;;;0.60;0.60;;;12.60;99.90;;;;;;5018228;28;20466;-72
2022/05/01 09:41:15;;;;;;;0.50;0.50;;;12.80;99.90;;;;;;5017941;28;20434;-72
2022/05/01 09:44:13;;;;;;;0.40;0.40;;;13.10;99.90;;;;;;5017434;28;20441;-72
2022/05/01 09:47:01;;;;;;;0.63;0.63;;;13.10;99.90;;;;;;5017825;28;20312;-72
2022/05/01 09:49:52;;;;;;;1.53;1.43;;;13.30;99.90;;;;;;5017412;28;20517;-72
2022/05/01 09:52:54;;;;;;;0.50;0.50;;;13.40;99.90;;;;;;5017152;28;20454;-73
2022/05/01 09:55:43;;;;;;;0.80;0.80;;;13.50;99.90;;;;;;5017392;28;20421;-72
2022/05/01 09:58:33;;;;;;;0.40;0.40;;;13.50;99.90;;;;;;4998607;28;20617;-72
2022/05/01 10:01:21;;;;;;;0.80;0.70;;;13.60;99.90;;;;;;4997354;28;20426;-73
2022/05/01 10:04:10;;;;;;;0.50;0.50;;;13.60;99.90;;;;;;4997650;28;20218;-73
2022/05/01 10:07:08;;;;;;;0.40;0.40;;;13.80;99.90;;;;;;4998820;28;20309;-73
2022/05/01 10:09:56;;;;;;;0.40;0.40;;;13.70;99.90;;;;;;4996460;28;20430;-74
2022/05/01 10:12:46;;;;;;;0.40;0.40;;;13.90;99.90;;;;;;4997714;28;20484;-72
2022/05/01 10:15:34;;;;;;;1.00;0.90;;;14.10;99.90;;;;;;4997597;28;20207;-71
2022/05/01 10:18:24;;;;;;;0.60;0.60;;;14.20;99.90;;;;;;4996912;28;20266;-72
2022/05/01 10:21:13;;;;;;;0.50;0.50;;;14.20;99.90;;;;;;4997842;28;20435;-73
2022/05/01 10:24:03;;;;;;;1.80;1.33;;;14.10;99.90;;;;;;4997533;28;20200;-72
2022/05/01 10:26:55;;;;;;;0.47;0.47;;;14.20;99.90;;;;;;4997025;28;20200;-73
2022/05/01 10:33:16;;;;;;;0.50;0.50;;;14.50;99.90;;;;;;4996299;28;20203;-72
2022/05/01 10:36:30;;;;;;;0.60;0.60;;;14.70;99.90;;;;;;4996593;28;20657;-72
2022/05/01 10:39:20;;;;;;;0.50;0.50;;;15.00;99.90;;;;;;4997380;28;20455;-73
2022/05/01 10:42:08;;;;;;;0.73;0.65;;;15.30;99.90;;;;;;4996799;28;20983;-72
2022/05/01 10:44:57;;;;;;;0.50;0.50;;;15.40;99.90;;;;;;4997366;28;20218;-72
2022/05/01 10:47:47;;;;;;;0.40;0.40;;;15.60;99.90;;;;;;4997045;28;20779;-71
2022/05/01 10:50:35;;;;;;;0.40;0.40;;;15.80;99.90;;;;;;4997315;28;20660;-72
2022/05/01 10:53:23;;;;;;;0.45;0.45;;;15.90;99.00;;;;;;4997284;28;20207;-71
2022/05/01 10:56:22;;;;;;;0.50;0.50;;;16.20;99.70;;;;;;4998705;28;20587;-71
2022/05/01 10:59:34;;;;;;;0.40;0.40;;;16.20;99.30;;;;;;5016025;28;20265;-72
2022/05/01 11:02:35;;;;;;;0.50;0.50;;;16.30;98.10;;;;;;5016277;28;20199;-72
2022/05/01 11:05:43;;;;;;;1.02;0.55;;;16.40;97.80;;;;;;5016145;28;20575;-72
2022/05/01 11:08:33;;;;;;;0.40;0.40;;;16.70;97.60;;;;;;5015440;28;20289;-72
2022/05/01 11:11:25;;;;;;;0.40;0.40;;;16.80;96.50;;;;;;5015749;28;20211;-72
2022/05/01 11:14:14;;;;;;;0.40;0.40;;;17.00;96.90;;;;;;5016061;28;20280;-73
2022/05/01 11:17:02;;;;;;;0.60;0.50;;;17.10;96.00;;;;;;5016546;28;20219;-72
2022/05/01 11:19:52;;;;;;;0.50;0.50;;;17.20;95.10;;;;;;5017307;28;20222;-71
2022/05/01 11:22:40;;;;;;;0.75;0.63;;;17.20;94.60;;;;;;5015711;28;20694;-72
2022/05/01 11:25:37;;;;;;;0.40;0.40;;;17.30;94.90;;;;;;5016421;28;20244;-72
2022/05/01 11:29:10;;;;;;;0.40;0.40;;;17.50;93.70;;;;;;5016257;28;20316;-74
2022/05/01 11:32:17;;;;;;;0.40;0.40;;;17.50;93.50;;;;;;5014756;28;20288;-72
2022/05/01 11:35:06;;;;;;;0.40;0.40;;;17.70;94.00;;;;;;5017815;28;20203;-72
2022/05/01 11:38:08;;;;;;;0.80;0.80;;;17.80;92.80;;;;;;5018219;28;20266;-72
2022/05/01 11:40:57;;;;;;;0.40;0.40;;;17.90;92.60;;;;;;5013633;28;20807;-73
2022/05/01 11:43:45;;;;;;;0.50;0.40;;;18.20;92.50;;;;;;5012514;28;20199;-74
2022/05/01 11:46:35;;;;;;;0.60;0.60;;;18.60;91.80;;;;;;5012327;28;20671;-73
2022/05/01 11:49:24;;;;;;;0.40;0.40;;;18.90;91.30;;;;;;5013505;28;20195;-76
2022/05/01 11:52:13;;;;;;;0.40;0.40;;;19.20;90.00;;;;;;5012515;28;20203;-73
2022/05/01 11:55:06;;;;;;;0.40;0.40;;;19.40;89.40;;;;;;5012593;28;20203;-77
2022/05/01 12:04:27;;;;;;;0.50;0.50;;;19.20;86.80;;;;;;5014268;28;20593;-76
2022/05/01 12:07:17;;;;;;;0.50;0.50;;;18.90;88.00;;;;;;5014030;28;20259;-73
2022/05/01 12:10:12;;;;;;;0.40;0.40;;;19.00;87.70;;;;;;5013065;28;20205;-77
2022/05/01 12:13:15;;;;;;;0.40;0.40;;;19.10;86.60;;;;;;5013107;28;20198;-77
2022/05/01 12:16:03;;;;;;;0.40;0.40;;;18.80;86.30;;;;;;5015011;28;20198;-76
2022/05/01 12:18:52;;;;;;;0.40;0.40;;;18.50;86.30;;;;;;5012272;28;20226;-76
2022/05/01 12:21:42;;;;;;;0.50;0.50;;;18.60;86.30;;;;;;5013476;28;20283;-76
2022/05/01 12:24:30;;;;;;;8.40;1.10;;;18.50;87.00;;;;;;5013654;28;20318;-74
2022/05/01 12:27:19;;;;;;;0.93;0.80;;;18.60;87.40;;;;;;5013983;28;20229;-74
2022/05/01 12:30:09;;;;;;;0.90;0.90;;;18.50;87.50;;;;;;5014302;28;20249;-75
2022/05/01 12:32:57;;;;;;;0.40;0.40;;;18.10;87.70;;;;;;5014187;28;20718;-72
2022/05/01 12:35:54;;;;;;;0.50;0.50;;;17.90;87.00;;;;;;5013611;28;20281;-74
2022/05/01 12:38:44;;;;;;;0.60;0.60;;;18.00;88.70;;;;;;5014619;28;20219;-73
2022/05/01 12:45:12;;;;;;;0.40;0.40;;;18.00;89.50;;;;;;5015417;28;20242;-72
2022/05/01 12:48:03;;;;;;;0.40;0.40;;;18.10;89.60;;;;;;5014177;28;20234;-77
2022/05/01 12:50:51;;;;;;;0.40;0.40;;;18.60;88.40;;;;;;5013580;28;20222;-75
2022/05/01 12:53:40;;;;;;;0.40;0.40;;;18.80;88.10;;;;;;5011996;28;20280;-72
2022/05/01 12:56:30;;;;;;;0.57;0.57;;;19.50;87.40;;;;;;5012566;28;20212;-74
2022/05/01 12:59:27;;;;;;;1.15;1.05;;;20.10;82.60;;;;;;5013132;28;20301;-76
2022/05/01 13:02:18;;;;;;;0.40;0.40;;;20.20;83.20;;;;;;5011661;28;20199;-73
2022/05/01 13:05:07;;;;;;;0.50;0.50;;;20.60;81.10;;;;;;5011838;28;20210;-73
2022/05/01 13:07:59;;;;;;;0.50;0.50;;;20.50;81.90;;;;;;5012453;28;20222;-71
2022/05/01 13:11:08;;;;;;;0.40;0.40;;;21.00;79.90;;;;;;5011956;28;20226;-75
2022/05/01 13:13:59;;;;;;;3.47;0.88;;;21.30;78.60;;;;;;5012157;28;20621;-75
2022/05/01 13:16:47;;;;;;;1.98;1.83;;;22.00;77.60;;;;;;5011948;28;20256;-77
2022/05/01 13:19:36;;;;;;;0.40;0.40;;;22.30;75.10;;;;;;5011649;28;20269;-72
2022/05/01 13:22:24;;;;;;;0.40;0.40;;;22.40;75.10;;;;;;5011335;28;20226;-73
2022/05/01 13:25:13;;;;;;;0.40;0.40;;;22.90;73.90;;;;;;5012890;28;20203;-73
2022/05/01 13:28:01;;;;;;;1.15;1.05;;;22.00;72.50;;;;;;5011677;28;20723;-74
2022/05/01 13:30:51;;;;;;;0.40;0.40;;;21.20;73.70;;;;;;5011428;28;20205;-73
2022/05/01 13:33:39;;;;;;;0.60;0.60;;;20.60;75.20;;;;;;5011381;28;20249;-75
2022/05/01 13:36:27;;;;;;;0.40;0.40;;;19.90;75.90;;;;;;5011730;28;20199;-75
2022/05/01 13:39:15;;;;;;;0.40;0.40;;;19.70;77.20;;;;;;5014387;28;20285;-74
2022/05/01 13:45:09;;;;;;;0.50;0.50;;;20.90;77.40;;;;;;5013148;28;20320;-72
2022/05/01 13:47:59;;;;;;;0.40;0.40;;;23.20;73.50;;;;;;5012658;28;20645;-73
2022/05/01 13:50:47;;;;;;;0.80;0.70;;;23.80;70.00;;;;;;5013135;28;20199;-74
2022/05/01 13:53:35;;;;;;;0.40;0.40;;;24.40;68.00;;;;;;5012250;28;20257;-72
2022/05/01 13:56:23;;;;;;;0.40;0.40;;;25.20;67.20;;;;;;5012369;28;20683;-73
2022/05/01 13:59:11;;;;;;;0.60;0.60;;;25.00;66.00;;;;;;5012303;28;20701;-72
2022/05/01 14:01:59;;;;;;;0.40;0.40;;;24.50;65.30;;;;;;5012668;28;20257;-72
2022/05/01 14:04:49;;;;;;;0.40;0.40;;;23.70;65.10;;;;;;5011902;28;20210;-72
2022/05/01 14:07:37;;;;;;;0.40;0.40;;;22.70;65.20;;;;;;5014124;28;20222;-75
2022/05/01 14:10:25;;;;;;;0.40;0.40;;;22.00;67.40;;;;;;5015980;28;20230;-75
2022/05/01 14:13:13;;;;;;;0.40;0.40;;;21.50;68.20;;;;;;5014186;28;20743;-74
2022/05/01 14:16:01;;;;;;;0.50;0.50;;;21.30;69.30;;;;;;5017447;28;20206;-72
2022/05/01 14:18:51;;;;;;;0.40;0.40;;;20.90;68.90;;;;;;5015602;28;20995;-74
2022/05/01 14:21:41;;;;;;;0.40;0.40;;;21.10;69.60;;;;;;5015442;28;20206;-73
2022/05/01 14:24:51;;;;;;;0.40;0.40;;;21.30;67.20;;;;;;5014557;28;20202;-74
2022/05/01 14:27:39;;;;;;;0.40;0.40;;;21.50;68.50;;;;;;5015105;28;20219;-73
2022/05/01 14:30:30;;;;;;;0.40;0.40;;;21.90;67.50;;;;;;5016275;28;20247;-74
2022/05/01 14:33:29;;;;;;;0.40;0.40;;;21.60;67.20;;;;;;5016500;28;20687;-74
2022/05/01 14:36:19;;;;;;;0.40;0.40;;;21.30;66.30;;;;;;5015924;28;20687;-74
2022/05/01 14:39:10;;;;;;;0.40;0.40;;;21.30;66.90;;;;;;5015417;28;20211;-74
2022/05/01 14:42:00;;;;;;;0.40;0.40;;;21.20;66.80;;;;;;5017192;28;20199;-73
2022/05/01 14:45:03;;;;;;;0.40;0.40;;;20.80;67.00;;;;;;5015474;28;20210;-72
2022/05/01 14:48:04;;;;;;;0.40;0.40;;;20.90;67.20;;;;;;5015101;28;20257;-73
2022/05/01 14:50:58;;;;;;;0.93;0.77;;;20.90;67.10;;;;;;5014712;28;20202;-73
2022/05/01 14:53:47;;;;;;;0.40;0.40;;;21.10;66.90;;;;;;5015068;28;20210;-72
2022/05/01 14:56:37;;;;;;;0.40;0.40;;;21.00;67.10;;;;;;5015342;28;20280;-73
2022/05/01 15:08:46;;;;;;;0.93;0.93;;;20.00;67.20;;;;;;5014885;28;20258;-77
2022/05/01 15:11:38;;;;;;;0.40;0.40;;;19.70;68.30;;;;;;5019694;28;20249;-78
2022/05/01 15:14:27;;;;;;;0.40;0.40;;;19.20;69.90;;;;;;5027184;23;20245;-68
2022/05/01 15:17:24;;;;;;;1.85;0.88;;;19.00;69.20;;;;;;4996427;28;20257;-68
2022/05/01 15:20:20;;;;;;;0.40;0.40;;;19.00;69.40;;;;;;4995067;28;20234;-68
2022/05/01 15:23:12;;;;;;;0.40;0.40;;;18.70;69.90;;;;;;4996076;28;20297;-68
2022/05/01 15:26:02;;;;;;;0.80;0.70;;;18.80;70.50;;;;;;4977082;28;20204;-68
2022/05/01 15:28:51;;;;;;;0.40;0.40;;;18.70;71.10;;;;;;4976355;28;20282;-68
2022/05/01 15:31:42;;;;;;;0.50;0.50;;;18.50;71.30;;;;;;4975980;28;20197;-68
2022/05/01 15:34:34;;;;;;;0.50;0.50;;;18.50;71.20;;;;;;4976722;28;20248;-68
2022/05/01 15:37:25;;;;;;;0.50;0.50;;;18.50;72.50;;;;;;4976901;28;20466;-68